Time;durP1;ratioP1;P1;durP2;ratioP2;P2;SDS_P1;SDS_P2;PMS_P1;PMS_P2;Temp;Humidity;BMP_temperature;BMP_pressure;BME280_temperature;BME280_humidity;BME280_pressure;Samples;Min_cycle;Max_cycle;Signal;HPM_P1;HPM_P2
2023/02/15 00:02:06;;;;;;;16.95;10.18;;;;;;;3.97;66.04;101597.41;4995397;28;20062;-62
2023/02/15 00:04:46;;;;;;;15.95;10.50;;;;;;;3.96;66.15;101595.69;4990966;28;20050;-62
2023/02/15 00:07:15;;;;;;;17.63;11.50;;;;;;;3.94;66.11;101595.09;4995872;28;20061;-62
2023/02/15 00:09:46;;;;;;;17.55;10.57;;;;;;;3.94;65.05;101589.59;4994272;28;20046;-62
2023/02/15 00:12:14;;;;;;;17.13;11.43;;;;;;;3.94;65.71;101589.59;4995571;28;20058;-61
2023/02/15 00:14:42;;;;;;;17.25;11.07;;;;;;;3.89;65.20;101584.00;4993992;28;20706;-61
2023/02/15 00:17:09;;;;;;;15.85;10.20;;;;;;;3.90;64.74;101571.88;4995279;28;20076;-62
2023/02/15 00:19:37;;;;;;;19.00;10.98;;;;;;;3.89;65.34;101572.97;4995610;28;20050;-62
2023/02/15 00:22:04;;;;;;;15.57;10.20;;;;;;;3.90;64.74;101577.38;4995423;28;20483;-62
2023/02/15 00:24:33;;;;;;;16.42;11.18;;;;;;;3.90;65.72;101584.81;4995300;28;20054;-62
2023/02/15 00:27:02;;;;;;;16.97;10.67;;;;;;;3.89;66.18;101572.97;4993680;28;20058;-62
2023/02/15 00:29:29;;;;;;;16.45;10.70;;;;;;;3.90;64.98;101571.88;4995475;28;21011;-62
2023/02/15 00:31:56;;;;;;;17.30;11.50;;;;;;;3.85;65.73;101564.31;4994761;28;20050;-62
2023/02/15 00:34:26;;;;;;;19.02;11.90;;;;;;;3.85;65.95;101569.84;4995205;28;20050;-61
2023/02/15 00:36:53;;;;;;;16.60;11.18;;;;;;;3.79;66.15;101564.47;4989538;28;20046;-62
2023/02/15 00:39:21;;;;;;;19.15;11.32;;;;;;;3.80;65.84;101563.38;4985234;28;20061;-62
2023/02/15 00:41:51;;;;;;;15.65;10.55;;;;;;;3.81;65.54;101559.56;4985770;28;20058;-62
2023/02/15 00:44:20;;;;;;;15.38;10.27;;;;;;;3.75;64.56;101560.53;4992239;28;20046;-62
2023/02/15 00:46:47;;;;;;;18.05;10.32;;;;;;;3.74;64.48;101558.81;4994775;28;20046;-62
2023/02/15 00:49:15;;;;;;;17.60;11.05;;;;;;;3.75;64.87;101563.28;4994817;28;20050;-63
2023/02/15 00:51:42;;;;;;;17.90;9.70;;;;;;;3.72;64.49;101558.25;4994585;28;20054;-62
2023/02/15 00:54:09;;;;;;;14.93;10.05;;;;;;;3.66;65.02;101566.41;4994351;28;20483;-60
2023/02/15 00:56:36;;;;;;;16.35;10.43;;;;;;;3.66;64.84;101565.56;4993451;28;20058;-63
2023/02/15 00:59:03;;;;;;;19.10;11.60;;;;;;;3.65;65.62;101563.88;4994655;28;20054;-62
2023/02/15 01:01:33;;;;;;;14.98;10.48;;;;;;;3.64;65.33;101571.31;4993754;28;20419;-62
2023/02/15 01:04:00;;;;;;;17.70;11.40;;;;;;;3.54;65.50;101559.22;4992559;28;20049;-62
2023/02/15 01:06:27;;;;;;;20.35;12.10;;;;;;;3.59;65.24;101565.69;4994630;28;20978;-61
2023/02/15 01:08:54;;;;;;;17.30;11.57;;;;;;;3.54;65.75;101562.81;4994504;28;20050;-62
2023/02/15 01:11:23;;;;;;;17.20;11.32;;;;;;;3.56;65.26;101563.41;4991577;28;20055;-62
2023/02/15 01:13:52;;;;;;;18.75;12.20;;;;;;;3.58;65.72;101568.69;4992599;28;20056;-62
2023/02/15 01:16:19;;;;;;;17.85;11.60;;;;;;;3.52;65.68;101570.47;4993804;28;20494;-62
2023/02/15 01:18:48;;;;;;;19.33;12.20;;;;;;;3.48;65.20;101558.25;4993737;28;20061;-62
2023/02/15 01:21:18;;;;;;;17.65;12.63;;;;;;;3.47;64.83;101556.59;4994514;28;20050;-62
2023/02/15 01:23:46;;;;;;;19.88;12.07;;;;;;;3.44;65.19;101559.81;4994167;28;20058;-62
2023/02/15 01:26:14;;;;;;;21.45;13.30;;;;;;;3.44;66.04;101557.94;4992569;28;20061;-62
2023/02/15 01:28:41;;;;;;;19.42;12.68;;;;;;;3.42;65.83;101560.06;4994022;28;20058;-62
2023/02/15 01:31:10;;;;;;;20.35;12.02;;;;;;;3.44;65.69;101555.16;4994012;28;20495;-62
2023/02/15 01:33:37;;;;;;;22.98;13.68;;;;;;;3.44;65.80;101557.06;4991847;28;20050;-61
2023/02/15 01:36:07;;;;;;;18.95;12.52;;;;;;;3.46;65.39;101554.91;4989903;28;20057;-62
2023/02/15 01:38:35;;;;;;;20.15;13.15;;;;;;;3.43;66.27;101545.22;4991518;28;20051;-62
2023/02/15 01:43:46;;;;;;;19.23;12.75;;;;;;;3.35;66.04;101540.06;4989121;28;20054;-62
2023/02/15 01:46:14;;;;;;;19.23;11.57;;;;;;;3.33;66.61;101544.97;4992745;28;20554;-61
2023/02/15 01:48:46;;;;;;;23.30;12.93;;;;;;;3.33;66.69;101539.47;4993437;28;20061;-61
2023/02/15 01:51:18;;;;;;;20.85;13.80;;;;;;;3.33;65.41;101541.41;4991889;28;20054;-62
2023/02/15 01:53:52;;;;;;;18.08;10.98;;;;;;;3.34;65.95;101537.53;4993177;28;20054;-62
2023/02/15 01:56:25;;;;;;;21.00;12.82;;;;;;;3.35;65.34;101537.31;4990501;28;20507;-63
2023/02/15 01:58:57;;;;;;;19.08;12.07;;;;;;;3.31;65.46;101538.03;4990997;28;20058;-63
2023/02/15 02:01:26;;;;;;;19.48;11.60;;;;;;;3.29;65.56;101529.19;4993608;28;20407;-60
2023/02/15 02:04:00;;;;;;;19.42;12.50;;;;;;;3.25;65.27;101526.91;4993396;28;20395;-63
2023/02/15 02:06:30;;;;;;;20.75;12.85;;;;;;;3.26;66.21;101525.00;4993714;28;20054;-60
2023/02/15 02:08:58;;;;;;;;;;;;;;;3.25;65.76;101526.91;4993542;28;20070;-61
2023/02/15 02:11:25;;;;;;;22.63;13.73;;;;;;;3.21;66.31;101514.72;4992718;28;19922;-61
2023/02/15 02:13:55;;;;;;;21.92;12.50;;;;;;;3.16;65.29;101516.50;4991170;28;20471;-61
2023/02/15 02:16:26;;;;;;;20.48;13.20;;;;;;;3.14;65.97;101513.97;4990382;28;20050;-60
2023/02/15 02:19:18;;;;;;;19.92;12.45;;;;;;;3.15;66.22;101506.53;4990908;28;20066;-61
2023/02/15 02:22:20;;;;;;;19.23;12.23;;;;;;;3.12;66.09;101504.28;4990787;28;20049;-61
2023/02/15 02:25:20;;;;;;;18.50;12.48;;;;;;;3.09;65.92;101496.50;4983718;28;20055;-61
2023/02/15 02:27:51;;;;;;;21.10;12.18;;;;;;;3.04;65.56;101505.47;4948298;28;20053;-62
2023/02/15 02:30:49;;;;;;;19.92;12.50;;;;;;;3.03;65.39;101501.06;4990507;28;20061;-62
2023/02/15 02:33:39;;;;;;;19.40;12.40;;;;;;;3.03;65.80;101498.31;4984162;28;20046;-61
2023/02/15 02:36:16;;;;;;;19.08;12.63;;;;;;;3.00;66.30;101490.50;4988999;28;20069;-62
2023/02/15 02:38:53;;;;;;;18.80;11.85;;;;;;;2.95;65.94;101488.47;4989953;28;20495;-62
2023/02/15 02:41:28;;;;;;;20.20;12.50;;;;;;;2.87;65.54;101497.09;4990301;28;20054;-62
2023/02/15 02:44:04;;;;;;;18.17;11.70;;;;;;;2.84;65.50;101495.66;4990661;28;20383;-61
2023/02/15 02:46:36;;;;;;;18.67;11.88;;;;;;;2.88;65.57;101481.41;4991571;28;20506;-61
2023/02/15 02:49:04;;;;;;;21.35;12.80;;;;;;;2.85;65.13;101478.06;4989646;28;20107;-61
2023/02/15 02:51:32;;;;;;;18.95;12.25;;;;;;;2.82;65.38;101480.47;4980085;28;20533;-61
2023/02/15 02:54:05;;;;;;;20.05;12.82;;;;;;;2.78;66.35;101471.84;4990222;28;20479;-61
2023/02/15 02:56:38;;;;;;;21.10;13.25;;;;;;;2.75;66.14;101477.84;4989947;28;20046;-61
2023/02/15 02:59:12;;;;;;;21.52;13.15;;;;;;;2.77;65.50;101475.69;4988449;28;20144;-62
2023/02/15 03:01:44;;;;;;;22.75;13.50;;;;;;;2.81;66.24;101465.88;4991919;28;20080;-62
2023/02/15 03:04:18;;;;;;;19.58;13.10;;;;;;;2.81;65.31;101467.75;4994550;28;20482;-62
2023/02/15 03:06:53;;;;;;;20.60;13.45;;;;;;;2.68;65.60;101477.09;4994417;28;20050;-61
2023/02/15 03:09:41;;;;;;;21.05;14.23;;;;;;;2.71;66.80;101471.13;4995040;28;20054;-61
2023/02/15 03:12:10;;;;;;;21.45;13.90;;;;;;;2.73;66.37;101474.47;4995181;28;20058;-62
2023/02/15 03:14:43;;;;;;;20.35;13.43;;;;;;;2.73;66.70;101463.47;4994354;28;20054;-62
2023/02/15 03:17:13;;;;;;;23.83;13.95;;;;;;;2.71;66.10;101465.63;4993403;28;20047;-62
2023/02/15 03:19:46;;;;;;;20.88;13.65;;;;;;;2.63;65.70;101457.72;4994090;28;20479;-62
2023/02/15 03:22:19;;;;;;;20.38;13.55;;;;;;;2.63;65.75;101464.06;4994201;28;20054;-62
2023/02/15 03:24:54;;;;;;;22.17;14.65;;;;;;;2.59;66.44;101454.59;4995597;28;20057;-62
2023/02/15 03:27:28;;;;;;;20.67;12.98;;;;;;;2.57;66.38;101450.41;4996384;28;20058;-61
2023/02/15 03:30:00;;;;;;;21.50;13.95;;;;;;;2.56;66.88;101451.47;4995912;28;20054;-62
2023/02/15 03:32:30;;;;;;;22.25;12.73;;;;;;;2.57;66.94;101447.66;4995099;28;20051;-61
2023/02/15 03:35:00;;;;;;;23.65;13.73;;;;;;;2.58;66.53;101449.31;4976733;28;20411;-62
2023/02/15 03:37:36;;;;;;;20.50;13.70;;;;;;;2.49;67.72;101448.00;4976348;28;20051;-62
2023/02/15 03:42:59;;;;;;;20.17;13.43;;;;;;;2.52;66.60;101447.53;4994503;28;20061;-62
2023/02/15 03:45:31;;;;;;;19.30;12.73;;;;;;;2.51;66.28;101449.44;4995891;28;20498;-62
2023/02/15 03:48:01;;;;;;;21.23;13.13;;;;;;;2.49;66.71;101453.50;4995917;28;20383;-63
2023/02/15 03:53:21;;;;;;;20.98;12.98;;;;;;;2.43;67.29;101447.84;5000053;28;20415;-61
2023/02/15 03:55:50;;;;;;;19.13;12.68;;;;;;;2.42;67.25;101445.38;4995537;28;20054;-61
2023/02/15 04:04:04;;;;;;;17.08;11.60;;;;;;;2.36;66.92;101440.81;4998341;28;19921;-61
2023/02/15 04:06:32;;;;;;;18.77;11.90;;;;;;;2.37;66.09;101445.22;4994533;28;20511;-61
2023/02/15 04:11:45;;;;;;;19.50;13.52;;;;;;;2.29;66.78;101445.56;5001180;28;20066;-61
2023/02/15 04:16:53;;;;;;;19.92;13.32;;;;;;;2.29;66.34;101443.66;4994344;28;20530;-61
2023/02/15 04:27:37;;;;;;;22.83;14.20;;;;;;;2.31;68.29;101443.41;4979810;28;20062;-61
2023/02/15 04:30:04;;;;;;;20.88;13.25;;;;;;;2.27;68.11;101443.06;4975543;28;20066;-61
2023/02/15 04:32:31;;;;;;;20.05;13.30;;;;;;;2.23;67.30;101439.94;4975252;28;20495;-60
2023/02/15 04:34:59;;;;;;;20.23;13.18;;;;;;;2.23;67.89;101447.34;4975724;28;20057;-61
2023/02/15 04:37:27;;;;;;;19.35;12.48;;;;;;;2.22;66.75;101437.41;4975668;28;20522;-59
2023/02/15 04:39:55;;;;;;;18.27;12.15;;;;;;;2.23;66.66;101434.44;4975875;28;20061;-63
2023/02/15 04:42:22;;;;;;;19.50;12.82;;;;;;;2.19;66.34;101435.16;4973150;28;20050;-61
2023/02/15 04:44:49;;;;;;;23.42;13.50;;;;;;;2.13;67.03;101436.91;4974877;28;20054;-61
2023/02/15 04:47:16;;;;;;;19.63;12.50;;;;;;;2.13;66.50;101431.44;4973745;28;20055;-62
2023/02/15 04:49:44;;;;;;;18.92;12.52;;;;;;;2.08;67.36;101439.56;4975638;28;20062;-61
2023/02/15 04:52:11;;;;;;;18.13;12.27;;;;;;;2.10;66.82;101431.03;4975162;28;20054;-61
2023/02/15 04:54:40;;;;;;;21.42;14.43;;;;;;;2.12;66.33;101432.50;4975599;28;20078;-61
2023/02/15 04:57:07;;;;;;;23.73;14.68;;;;;;;1.98;67.26;101434.59;4975332;28;20073;-61
2023/02/15 04:59:34;;;;;;;23.25;15.35;;;;;;;2.00;67.16;101437.13;4969993;28;20055;-61
2023/02/15 05:02:02;;;;;;;23.60;14.27;;;;;;;1.99;66.88;101425.28;4970163;28;20412;-61
2023/02/15 05:04:29;;;;;;;22.85;14.23;;;;;;;1.97;67.50;101430.16;4970785;28;20066;-61
2023/02/15 05:06:56;;;;;;;22.80;13.45;;;;;;;1.93;66.76;101426.25;4974586;28;20062;-62
2023/02/15 05:09:24;;;;;;;22.08;14.63;;;;;;;1.97;66.81;101423.84;4974964;28;20057;-62
2023/02/15 05:11:52;;;;;;;23.83;14.07;;;;;;;1.93;67.08;101422.63;4975057;28;20491;-62
2023/02/15 05:14:20;;;;;;;21.40;13.75;;;;;;;1.95;66.39;101424.09;4974578;28;20407;-61
2023/02/15 05:16:47;;;;;;;22.85;13.38;;;;;;;1.94;67.05;101427.91;4973625;28;20062;-61
2023/02/15 05:19:15;;;;;;;23.88;13.82;;;;;;;1.89;66.49;101426.91;4975286;28;20062;-61
2023/02/15 05:21:42;;;;;;;20.15;13.90;;;;;;;1.85;67.03;101426.56;4974286;28;20058;-61
2023/02/15 05:29:37;;;;;;;22.77;13.98;;;;;;;1.89;66.47;101410.44;4995181;28;20066;-62
2023/02/15 05:32:04;;;;;;;23.38;15.00;;;;;;;1.84;66.34;101411.13;4990667;28;20061;-62
2023/02/15 05:34:32;;;;;;;23.23;14.70;;;;;;;1.80;66.70;101410.75;4994126;28;20077;-62
2023/02/15 05:36:59;;;;;;;26.38;16.20;;;;;;;1.81;67.24;101400.63;4991282;28;20046;-62
2023/02/15 05:39:26;;;;;;;25.80;16.58;;;;;;;1.79;67.37;101405.53;4990739;28;20475;-62
2023/02/15 05:41:55;;;;;;;28.67;18.52;;;;;;;1.78;67.76;101406.56;4993747;28;20050;-62
2023/02/15 05:44:22;;;;;;;25.63;16.95;;;;;;;1.75;67.09;101413.38;4993877;28;20073;-62
2023/02/15 05:46:49;;;;;;;29.92;18.65;;;;;;;1.75;67.54;101407.06;4993504;28;20050;-62
2023/02/15 05:49:16;;;;;;;28.83;17.60;;;;;;;1.72;67.41;101407.50;4989377;28;20050;-61
2023/02/15 05:51:43;;;;;;;26.73;17.90;;;;;;;1.72;67.35;101407.50;4993665;28;20418;-61
2023/02/15 05:54:11;;;;;;;26.08;17.10;;;;;;;1.69;67.60;101397.00;4993638;28;20057;-62
2023/02/15 05:56:38;;;;;;;27.85;18.40;;;;;;;1.71;67.14;101400.34;4993324;28;20050;-61
2023/02/15 05:59:07;;;;;;;25.98;16.60;;;;;;;1.72;67.50;101396.50;4993453;28;20407;-61
2023/02/15 06:01:34;;;;;;;27.08;17.65;;;;;;;1.78;67.04;101395.59;4993518;28;20415;-62
2023/02/15 06:04:01;;;;;;;28.92;18.42;;;;;;;1.78;67.36;101390.91;4991946;28;20376;-61
2023/02/15 06:06:28;;;;;;;33.17;19.95;;;;;;;1.72;67.27;101394.63;4990837;28;20080;-62
2023/02/15 06:08:56;;;;;;;29.08;19.80;;;;;;;1.64;67.47;101394.94;4993034;28;20058;-62
2023/02/15 06:11:23;;;;;;;34.40;19.98;;;;;;;1.66;67.42;101391.94;4990591;28;20487;-62
2023/02/15 06:13:50;;;;;;;28.50;16.73;;;;;;;1.69;67.50;101397.00;4993318;28;20054;-62
2023/02/15 06:16:19;;;;;;;29.15;17.65;;;;;;;1.70;67.96;101404.16;4988700;28;20403;-62
2023/02/15 06:18:46;;;;;;;22.90;15.02;;;;;;;1.72;67.44;101399.25;4992223;28;20054;-62
2023/02/15 06:21:14;;;;;;;29.90;17.63;;;;;;;1.71;67.30;101405.84;4989157;28;20152;-64
2023/02/15 06:23:41;;;;;;;28.83;17.58;;;;;;;1.71;67.54;101400.34;4987396;28;20065;-61
2023/02/15 06:26:09;;;;;;;25.65;16.70;;;;;;;1.70;67.20;101409.63;4992611;28;20051;-61
2023/02/15 06:28:37;;;;;;;24.58;16.55;;;;;;;1.73;67.06;101410.03;4992878;28;20059;-61
2023/02/15 06:31:04;;;;;;;26.98;17.30;;;;;;;1.72;67.08;101399.25;4992692;28;20521;-61
2023/02/15 06:33:34;;;;;;;22.67;15.43;;;;;;;1.74;67.16;101400.72;4992854;28;20054;-61
2023/02/15 06:36:01;;;;;;;24.85;16.38;;;;;;;1.73;66.49;101400.94;4990682;28;20050;-61
2023/02/15 06:38:28;;;;;;;26.45;16.73;;;;;;;1.70;66.90;101393.16;4995355;28;20061;-61
2023/02/15 06:40:56;;;;;;;30.10;17.80;;;;;;;1.66;67.00;101400.19;4994889;28;20384;-61
2023/02/15 06:43:23;;;;;;;31.63;18.65;;;;;;;1.65;67.28;101396.63;4994860;28;20061;-61
2023/02/15 06:45:50;;;;;;;28.48;18.13;;;;;;;1.65;67.41;101402.09;4993206;28;20062;-61
2023/02/15 06:48:18;;;;;;;27.85;17.83;;;;;;;1.66;66.88;101411.16;4995619;28;20078;-61
2023/02/15 06:50:46;;;;;;;21.83;14.65;;;;;;;1.75;67.15;101412.53;4997150;28;20061;-62
2023/02/15 06:53:13;;;;;;;25.83;16.63;;;;;;;1.74;66.94;101419.09;4996440;28;20053;-61
2023/02/15 06:55:41;;;;;;;26.50;16.20;;;;;;;1.76;67.45;101416.94;4994051;28;20153;-62
2023/02/15 06:58:08;;;;;;;23.77;15.38;;;;;;;1.82;67.68;101414.09;4994747;28;20046;-62
2023/02/15 07:00:35;;;;;;;27.35;16.48;;;;;;;1.92;67.32;101409.97;4993843;28;20050;-61
2023/02/15 07:03:02;;;;;;;28.00;17.77;;;;;;;1.99;66.82;101410.72;4995176;28;20050;-61
2023/02/15 07:05:30;;;;;;;24.48;15.77;;;;;;;2.03;66.13;101410.00;4993824;28;20065;-61
2023/02/15 07:08:00;;;;;;;27.40;16.23;;;;;;;2.12;66.25;101401.41;4994973;28;20054;-62
2023/02/15 07:10:27;;;;;;;25.15;16.60;;;;;;;2.47;66.48;101408.91;4990581;28;20055;-62
2023/02/15 07:12:54;;;;;;;29.05;17.58;;;;;;;2.78;65.62;101404.97;4993038;28;20423;-62
2023/02/15 07:15:22;;;;;;;22.95;15.45;;;;;;;3.23;65.16;101407.06;4990383;28;20054;-60
2023/02/15 07:17:50;;;;;;;29.55;17.58;;;;;;;3.44;63.30;101409.19;4994557;28;20149;-62
2023/02/15 07:20:19;;;;;;;24.63;15.88;;;;;;;3.71;63.61;101392.09;4996161;28;20058;-62
2023/02/15 07:22:47;;;;;;;25.98;16.58;;;;;;;4.77;61.86;101393.34;4996432;28;20062;-63
2023/02/15 07:25:15;;;;;;;21.02;13.73;;;;;;;5.87;59.20;101390.63;4995414;28;20533;-62
2023/02/15 07:27:43;;;;;;;22.85;14.55;;;;;;;7.03;55.92;101388.25;4996196;28;20058;-62
2023/02/15 07:30:13;;;;;;;21.00;13.88;;;;;;;7.97;51.91;101380.03;4995812;28;20438;-62
2023/02/15 07:33:22;;;;;;;;;;;;;;;8.45;49.33;101377.91;4995646;28;20058;-62
2023/02/15 07:35:28;;;;;;;17.77;12.88;;;;;;;8.73;49.98;101379.25;4995588;28;19921;-62
2023/02/15 07:37:56;;;;;;;18.15;13.00;;;;;;;8.89;48.86;101380.91;4995919;28;20050;-62
2023/02/15 07:40:25;;;;;;;17.45;12.95;;;;;;;9.25;47.51;101386.34;4996069;28;20077;-63
2023/02/15 07:42:54;;;;;;;24.27;14.93;;;;;;;9.81;46.40;101367.78;4995586;28;20077;-63
2023/02/15 07:45:22;;;;;;;22.50;14.63;;;;;;;10.56;43.85;101370.28;4993523;28;20069;-62
2023/02/15 07:47:49;;;;;;;18.35;12.13;;;;;;;11.82;42.41;101361.88;4994909;28;20054;-62
2023/02/15 07:50:16;;;;;;;16.70;12.45;;;;;;;13.32;40.31;101345.06;4996117;28;20065;-61
2023/02/15 07:52:44;;;;;;;17.15;12.50;;;;;;;14.44;37.92;101344.44;4995998;28;20077;-63
2023/02/15 07:55:13;;;;;;;17.83;12.88;;;;;;;14.92;36.04;101340.94;4993683;28;20411;-64
2023/02/15 07:57:44;;;;;;;;;;;;;;;14.78;34.61;101335.47;4982504;28;20051;-64
2023/02/15 08:00:14;;;;;;;14.50;11.82;;;;;;;16.38;34.35;101320.25;4987462;28;19922;-64
2023/02/15 08:02:41;;;;;;;18.48;12.57;;;;;;;17.09;32.71;101324.53;4990081;28;20058;-61
2023/02/15 08:05:08;;;;;;;16.55;12.80;;;;;;;17.84;31.51;101319.97;4987837;28;20057;-64
2023/02/15 08:07:36;;;;;;;13.13;11.15;;;;;;;18.75;29.71;101310.81;4987823;28;20058;-64
2023/02/15 08:10:03;;;;;;;16.55;11.23;;;;;;;19.28;28.39;101313.84;4990235;28;20078;-63
2023/02/15 08:12:30;;;;;;;13.02;11.10;;;;;;;20.06;27.26;101321.13;4986729;28;20050;-64
2023/02/15 08:14:59;;;;;;;13.80;11.15;;;;;;;20.75;26.38;101317.44;4989395;28;20507;-64
2023/02/15 08:17:26;;;;;;;14.43;12.03;;;;;;;20.76;26.62;101317.06;4989096;28;20487;-64
2023/02/15 08:19:54;;;;;;;13.30;11.77;;;;;;;21.65;25.88;101310.00;4989568;28;20493;-65
2023/02/15 08:22:21;;;;;;;13.15;10.98;;;;;;;22.62;24.41;101305.53;4988227;28;20054;-64
2023/02/15 08:24:48;;;;;;;15.35;11.95;;;;;;;23.64;23.58;101298.31;4987265;28;20066;-64
2023/02/15 08:27:15;;;;;;;13.57;12.00;;;;;;;23.40;23.91;101308.94;4985605;28;20422;-64
2023/02/15 08:29:42;;;;;;;15.15;11.77;;;;;;;23.82;23.27;101293.75;4989276;28;20506;-64
2023/02/15 08:32:13;;;;;;;12.75;11.45;;;;;;;24.14;23.61;101295.38;4988233;28;20066;-64
2023/02/15 08:34:42;;;;;;;13.73;12.30;;;;;;;24.74;22.76;101297.28;4988312;28;20943;-64
2023/02/15 08:37:10;;;;;;;16.00;14.25;;;;;;;25.26;21.61;101292.47;4985146;28;20050;-62
2023/02/15 08:39:37;;;;;;;21.45;16.45;;;;;;;25.35;21.78;101292.97;4988382;28;20058;-64
2023/02/15 08:42:04;;;;;;;19.50;17.05;;;;;;;26.24;20.35;101281.22;4986072;28;20585;-64
2023/02/15 08:44:32;;;;;;;20.00;15.73;;;;;;;26.93;20.03;101276.47;4986199;28;20116;-64
2023/02/15 08:47:03;;;;;;;18.02;13.75;;;;;;;27.11;19.62;101277.31;4987410;28;20054;-64
2023/02/15 08:49:32;;;;;;;16.67;13.55;;;;;;;27.51;19.26;101275.25;4988535;28;20484;-63
2023/02/15 08:51:59;;;;;;;13.30;11.88;;;;;;;27.62;19.04;101275.22;4988541;28;20058;-64
2023/02/15 08:54:26;;;;;;;15.48;13.60;;;;;;;28.03;18.77;101268.94;4988559;28;20050;-64
2023/02/15 08:56:54;;;;;;;14.77;11.70;;;;;;;27.84;19.03;101267.34;4985108;28;20046;-64
2023/02/15 08:59:22;;;;;;;12.80;11.43;;;;;;;27.93;19.17;101264.91;4987198;28;20054;-64
2023/02/15 09:01:52;;;;;;;12.80;9.98;;;;;;;28.23;18.85;101265.59;4987010;28;20066;-63
2023/02/15 09:04:20;;;;;;;12.70;11.25;;;;;;;28.50;18.47;101263.81;4988213;28;20050;-64
2023/02/15 09:06:50;;;;;;;14.95;12.07;;;;;;;28.21;18.86;101260.28;4987538;28;20047;-63
2023/02/15 09:09:18;;;;;;;13.00;11.68;;;;;;;28.58;18.85;101258.88;4984736;28;20061;-64
2023/02/15 09:11:47;;;;;;;13.93;12.17;;;;;;;29.05;18.30;101258.50;4986284;28;20046;-63
2023/02/15 09:14:17;;;;;;;14.55;12.52;;;;;;;29.50;17.61;101256.44;4987465;28;20058;-63
2023/02/15 09:16:48;;;;;;;14.57;12.35;;;;;;;29.72;17.67;101250.47;4986417;28;20054;-63
2023/02/15 09:19:16;;;;;;;15.52;13.82;;;;;;;30.41;17.03;101257.00;4986640;28;20061;-64
2023/02/15 09:21:43;;;;;;;15.35;12.70;;;;;;;31.34;16.58;101243.13;4989385;28;20506;-61
2023/02/15 09:24:13;;;;;;;17.73;15.10;;;;;;;31.81;16.12;101248.81;4989954;28;20062;-58
2023/02/15 09:26:42;;;;;;;15.73;14.13;;;;;;;30.89;17.23;101252.13;4984087;28;20066;-60
2023/02/15 09:29:11;;;;;;;15.85;14.05;;;;;;;31.70;16.51;101243.25;4987949;28;20042;-59
2023/02/15 09:31:41;;;;;;;16.67;12.98;;;;;;;32.83;15.10;101236.66;4985029;28;20050;-60
2023/02/15 09:34:08;;;;;;;15.85;14.20;;;;;;;33.73;14.70;101233.00;4983119;28;20073;-59
2023/02/15 09:36:36;;;;;;;14.15;12.73;;;;;;;34.41;14.18;101232.22;4986340;28;20050;-59
2023/02/15 09:39:08;;;;;;;16.42;14.82;;;;;;;34.71;14.35;101231.69;4987147;28;20134;-59
2023/02/15 09:42:01;;;;;;;18.00;15.85;;;;;;;35.36;13.72;101226.53;4983664;28;20314;-60
2023/02/15 09:44:39;;;;;;;15.90;14.20;;;;;;;36.47;12.40;101228.09;4984297;28;20498;-60
2023/02/15 09:47:38;;;;;;;15.02;13.52;;;;;;;36.45;12.72;101224.06;4988242;28;20061;-59
2023/02/15 09:50:12;;;;;;;16.20;14.05;;;;;;;36.63;12.38;101223.38;4986222;28;20057;-60
2023/02/15 09:52:56;;;;;;;16.80;15.05;;;;;;;37.20;12.69;101218.03;4984793;28;20057;-61
2023/02/15 09:55:41;;;;;;;14.40;12.90;;;;;;;37.31;12.18;101232.06;4985329;28;20407;-59
2023/02/15 09:58:18;;;;;;;14.65;13.15;;;;;;;37.59;12.03;101218.38;4982757;28;20491;-61
2023/02/15 10:00:55;;;;;;;13.55;12.15;;;;;;;37.50;12.56;101224.16;4984143;28;20058;-60
2023/02/15 10:03:38;;;;;;;14.43;12.23;;;;;;;38.03;11.97;101220.06;4987708;28;20501;-60
2023/02/15 10:06:26;;;;;;;13.68;12.38;;;;;;;37.95;12.20;101211.69;4986215;28;20499;-60
2023/02/15 10:09:24;;;;;;;14.65;13.20;;;;;;;38.21;12.05;101213.41;4984740;28;20046;-60
2023/02/15 10:12:09;;;;;;;14.17;12.73;;;;;;;38.72;11.71;101222.06;4960335;28;20050;-60
2023/02/15 10:15:18;;;;;;;13.88;12.48;;;;;;;39.45;11.16;101211.25;4982555;28;20065;-60
2023/02/15 10:18:02;;;;;;;13.45;12.05;;;;;;;39.91;11.23;101207.88;4970247;28;20066;-59
2023/02/15 10:20:40;;;;;;;13.73;12.43;;;;;;;40.06;11.17;101221.69;4986258;28;20069;-59
2023/02/15 10:23:28;;;;;;;13.73;12.23;;;;;;;40.56;10.74;101215.88;4984126;28;20055;-59
2023/02/15 10:26:03;;;;;;;13.90;12.45;;;;;;;41.32;10.24;101212.97;4985511;28;20504;-60
2023/02/15 10:28:43;;;;;;;13.38;11.98;;;;;;;41.76;10.21;101219.84;4987296;28;20051;-60
2023/02/15 10:31:20;;;;;;;14.05;12.60;;;;;;;41.51;9.84;101213.44;4981351;28;20506;-60
2023/02/15 10:34:01;;;;;;;13.50;12.17;;;;;;;42.47;9.59;101219.47;4984859;28;20054;-60
2023/02/15 10:36:42;;;;;;;12.88;11.35;;;;;;;42.96;8.71;101214.44;4982451;28;20502;-60
2023/02/15 10:39:15;;;;;;;12.30;11.00;;;;;;;42.61;9.28;101223.53;4986362;28;20499;-61
2023/02/15 10:41:54;;;;;;;12.40;11.23;;;;;;;42.91;9.03;101216.03;4983035;28;20410;-62
2023/02/15 10:44:29;;;;;;;;;;;;;;;42.97;8.92;101204.34;4985708;28;20050;-61
2023/02/15 10:47:16;;;;;;;12.13;10.45;;;;;;;44.31;8.25;101208.91;4985588;28;19929;-60
2023/02/15 10:50:07;;;;;;;11.55;10.30;;;;;;;44.31;8.37;101199.28;4988183;28;20050;-61
2023/02/15 10:52:46;;;;;;;12.75;10.80;;;;;;;44.81;7.89;101191.72;4985750;28;20051;-60
2023/02/15 10:55:20;;;;;;;11.82;10.55;;;;;;;45.29;7.98;101196.38;4987615;28;20070;-61
2023/02/15 10:57:57;;;;;;;12.10;10.68;;;;;;;45.62;7.63;101197.53;4984544;28;20061;-60
2023/02/15 11:00:33;;;;;;;11.88;10.65;;;;;;;46.00;7.40;101189.75;4986826;28;20069;-61
2023/02/15 11:03:22;;;;;;;12.02;10.73;;;;;;;46.28;7.50;101180.66;4983095;28;20062;-60
2023/02/15 11:06:02;;;;;;;10.98;9.70;;;;;;;46.47;7.31;101191.75;4983899;28;20496;-61
2023/02/15 11:08:33;;;;;;;14.10;10.63;;;;;;;46.60;7.33;101200.72;4987424;28;20719;-61
2023/02/15 11:11:04;;;;;;;9.70;8.57;;;;;;;46.36;7.00;101190.50;4985823;28;20062;-60
2023/02/15 11:13:36;;;;;;;10.30;8.77;;;;;;;45.25;7.63;101187.84;4980602;28;20065;-61
2023/02/15 11:16:08;;;;;;;9.60;8.05;;;;;;;45.14;7.41;101173.97;4985930;28;20054;-61
2023/02/15 11:18:41;;;;;;;7.63;6.80;;;;;;;44.52;7.65;101177.13;4987853;28;20054;-62
2023/02/15 11:21:18;;;;;;;9.93;7.80;;;;;;;44.98;7.46;101171.91;4981946;28;20063;-61
2023/02/15 11:23:45;;;;;;;10.30;7.90;;;;;;;43.99;7.79;101179.00;4987597;28;20445;-61
2023/02/15 11:26:17;;;;;;;8.88;7.38;;;;;;;41.60;8.76;101176.59;4989216;28;20066;-61
2023/02/15 11:28:50;;;;;;;8.05;6.63;;;;;;;40.02;9.38;101169.34;4991101;28;20046;-62
2023/02/15 11:31:19;;;;;;;8.57;7.05;;;;;;;40.85;8.99;101170.38;4991922;28;20069;-61
2023/02/15 11:33:52;;;;;;;7.88;7.07;;;;;;;42.63;8.84;101165.22;4983357;28;20487;-62
2023/02/15 11:36:25;;;;;;;7.70;6.85;;;;;;;42.56;8.29;101169.44;4989452;28;20541;-61
2023/02/15 11:38:59;;;;;;;7.78;6.97;;;;;;;43.15;8.10;101170.81;4990011;28;20058;-61
2023/02/15 11:41:32;;;;;;;7.93;6.90;;;;;;;41.33;8.41;101161.97;4988548;28;20499;-61
2023/02/15 11:44:07;;;;;;;7.43;6.45;;;;;;;40.96;8.80;101155.91;4989773;28;20066;-62
2023/02/15 11:46:34;;;;;;;9.20;7.03;;;;;;;41.27;8.96;101154.44;4988544;28;20046;-61
2023/02/15 11:49:02;;;;;;;7.35;6.57;;;;;;;41.16;8.78;101153.00;4989032;28;20069;-61
2023/02/15 11:51:31;;;;;;;6.65;5.95;;;;;;;40.65;9.07;101151.47;4989187;28;20065;-61
2023/02/15 11:53:59;;;;;;;7.25;5.95;;;;;;;38.54;9.57;101149.41;4987516;28;20062;-60
2023/02/15 11:56:27;;;;;;;9.55;7.45;;;;;;;38.34;9.92;101149.97;4988036;28;20058;-64
2023/02/15 11:58:58;;;;;;;9.88;7.03;;;;;;;39.09;9.74;101151.94;4989205;28;20065;-63
2023/02/15 12:01:31;;;;;;;7.47;6.22;;;;;;;39.74;9.32;101137.56;4986403;28;20050;-63
2023/02/15 12:04:02;;;;;;;7.10;6.35;;;;;;;40.13;9.26;101133.69;4989126;28;20073;-63
2023/02/15 12:06:34;;;;;;;9.82;6.85;;;;;;;41.56;8.31;101142.53;4987983;28;20062;-63
2023/02/15 12:09:06;;;;;;;7.85;6.80;;;;;;;39.75;8.85;101127.50;4986460;28;20069;-63